Time;durP1;ratioP1;P1;durP2;ratioP2;P2;SDS_P1;SDS_P2;PMS_P1;PMS_P2;Temp;Humidity;BMP_temperature;BMP_pressure;BME280_temperature;BME280_humidity;BME280_pressure;Samples;Min_cycle;Max_cycle;Signal;HPM_P1;HPM_P2
2023/04/02 00:01:49;;;;;;;220.63;48.30;;;10.70;99.90;;;;;;5089902;28;20235;-52
2023/04/02 00:04:22;;;;;;;222.13;46.27;;;10.70;99.90;;;;;;5086309;28;20966;-51
2023/04/02 00:06:53;;;;;;;1052.77;142.53;;;10.60;99.90;;;;;;5083610;28;20228;-51
2023/04/02 00:09:26;;;;;;;1999.90;330.17;;;10.50;99.90;;;;;;5089715;28;20204;-50
2023/04/02 00:11:54;;;;;;;1999.90;323.20;;;10.50;99.90;;;;;;5080243;28;20893;-51
2023/04/02 00:14:25;;;;;;;1999.90;935.03;;;10.50;99.90;;;;;;5069983;28;20204;-51
2023/04/02 00:16:57;;;;;;;1997.93;219.30;;;10.50;99.90;;;;;;5082685;28;20255;-51
2023/04/02 00:19:31;;;;;;;1999.90;897.77;;;10.20;99.90;;;;;;5075320;28;20295;-51
2023/04/02 00:22:01;;;;;;;1999.90;437.50;;;10.10;99.90;;;;;;5089256;28;20294;-51
2023/04/02 00:24:29;;;;;;;1038.13;139.47;;;10.00;99.90;;;;;;5088911;28;20288;-49
2023/04/02 00:26:58;;;;;;;1999.90;476.23;;;9.90;99.90;;;;;;5083427;28;20314;-51
2023/04/02 00:29:26;;;;;;;1654.83;229.63;;;9.90;99.90;;;;;;5084946;28;20201;-51
2023/04/02 00:31:59;;;;;;;1999.90;473.60;;;9.80;99.90;;;;;;5075971;28;20208;-51
2023/04/02 00:34:31;;;;;;;1887.97;216.37;;;9.60;99.90;;;;;;5089468;28;20208;-51
2023/04/02 00:37:00;;;;;;;1999.90;641.40;;;9.60;99.90;;;;;;5089170;28;20323;-51
2023/04/02 00:39:32;;;;;;;1707.10;186.07;;;9.50;99.90;;;;;;5089294;28;20215;-51
2023/04/02 00:42:04;;;;;;;1999.90;708.77;;;9.50;99.90;;;;;;5084694;28;20678;-51
2023/04/02 00:44:36;;;;;;;1055.03;121.43;;;9.40;99.90;;;;;;5081919;28;20624;-51
2023/04/02 00:47:13;;;;;;;1999.90;373.50;;;9.40;99.90;;;;;;5079068;28;20238;-51
2023/04/02 00:49:42;;;;;;;1999.90;390.63;;;9.30;99.90;;;;;;5088029;28;20624;-51
2023/04/02 00:52:14;;;;;;;1347.87;148.57;;;9.20;99.90;;;;;;5075034;28;20259;-51
2023/04/02 00:54:47;;;;;;;1999.90;665.50;;;9.20;99.90;;;;;;5088901;28;20212;-51
2023/04/02 00:57:17;;;;;;;1515.03;258.37;;;9.20;99.90;;;;;;5088683;28;20896;-50
2023/04/02 00:59:54;;;;;;;1999.90;999.90;;;9.00;99.90;;;;;;5087956;28;20227;-51
2023/04/02 01:02:27;;;;;;;1999.90;665.63;;;9.00;99.90;;;;;;5089026;28;20582;-50
2023/04/02 01:04:58;;;;;;;1999.90;522.97;;;8.90;99.90;;;;;;5088681;28;20211;-50
2023/04/02 01:07:49;;;;;;;1999.90;601.53;;;8.90;99.90;;;;;;5090386;28;20265;-51
2023/04/02 01:10:48;;;;;;;1999.90;667.53;;;8.80;99.90;;;;;;5086520;28;20235;-51
2023/04/02 01:13:24;;;;;;;1999.90;304.80;;;8.60;99.90;;;;;;5067282;28;20621;-51
2023/04/02 01:15:57;;;;;;;1999.90;554.33;;;8.60;99.90;;;;;;5062466;28;20735;-50
2023/04/02 01:18:45;;;;;;;1999.90;399.60;;;8.60;99.90;;;;;;5082580;28;20752;-50
2023/04/02 01:21:31;;;;;;;1999.90;385.03;;;8.60;99.90;;;;;;5080864;28;20293;-50
2023/04/02 01:24:04;;;;;;;1999.90;591.27;;;8.50;99.90;;;;;;5078894;28;20290;-51
2023/04/02 01:26:44;;;;;;;1833.77;257.13;;;8.40;99.90;;;;;;5092582;28;20258;-50
2023/04/02 01:29:16;;;;;;;1999.90;749.40;;;8.30;99.90;;;;;;5085169;28;20212;-50
2023/04/02 01:31:46;;;;;;;1999.90;810.33;;;8.20;99.90;;;;;;5085088;28;20323;-50
2023/04/02 01:34:17;;;;;;;1999.90;547.30;;;8.00;99.90;;;;;;5092775;28;20274;-51
2023/04/02 01:36:57;;;;;;;1999.90;986.23;;;8.10;99.90;;;;;;5092349;28;20315;-51
2023/04/02 01:39:39;;;;;;;1999.90;508.07;;;8.20;99.90;;;;;;5092300;28;20698;-51
2023/04/02 01:42:15;;;;;;;1999.90;678.00;;;7.90;99.90;;;;;;5089735;28;20608;-50
2023/04/02 01:44:48;;;;;;;1999.90;513.23;;;8.10;99.90;;;;;;5092556;28;20929;-50
2023/04/02 01:47:19;;;;;;;1999.90;844.50;;;8.00;99.90;;;;;;5077380;28;20232;-51
2023/04/02 01:49:47;;;;;;;1999.90;485.37;;;7.90;99.90;;;;;;5087516;28;20246;-50
2023/04/02 01:52:19;;;;;;;1933.90;272.13;;;7.90;99.90;;;;;;5092112;28;20228;-50
2023/04/02 01:54:47;;;;;;;1999.90;592.20;;;7.90;99.90;;;;;;5092032;28;20681;-51
2023/04/02 01:57:16;;;;;;;1999.90;417.67;;;7.80;99.90;;;;;;5086699;28;20233;-50
2023/04/02 01:59:46;;;;;;;1999.90;633.70;;;7.80;99.90;;;;;;5064234;28;20594;-50
2023/04/02 02:02:14;;;;;;;1999.90;817.73;;;7.70;99.90;;;;;;5079621;28;20296;-50
2023/04/02 02:04:43;;;;;;;1999.90;765.87;;;7.70;99.90;;;;;;5091194;28;20211;-51
2023/04/02 02:07:15;;;;;;;1999.90;577.10;;;7.60;99.90;;;;;;5091714;28;20242;-51
2023/04/02 02:09:44;;;;;;;1999.90;462.53;;;7.70;99.90;;;;;;5091889;28;20204;-51
2023/04/02 02:12:13;;;;;;;1999.90;342.50;;;7.60;99.90;;;;;;5091814;28;20315;-51
2023/04/02 02:14:48;;;;;;;1999.90;715.37;;;7.60;99.90;;;;;;5091841;28;20250;-51
2023/04/02 02:17:18;;;;;;;1999.90;303.93;;;7.50;99.90;;;;;;5090894;28;20306;-51
2023/04/02 02:19:48;;;;;;;1992.90;259.13;;;7.50;99.90;;;;;;5078922;28;20208;-50
2023/04/02 02:22:24;;;;;;;1999.90;724.03;;;7.50;99.90;;;;;;5075102;28;20255;-50
2023/04/02 02:24:53;;;;;;;1999.90;438.23;;;7.60;99.90;;;;;;5075915;28;20295;-51
2023/04/02 02:27:48;;;;;;;1999.90;367.00;;;7.50;99.90;;;;;;5079488;28;20663;-50
2023/04/02 02:30:21;;;;;;;1999.90;552.70;;;7.40;99.90;;;;;;5091613;28;20649;-50
2023/04/02 02:32:55;;;;;;;1999.90;580.47;;;7.40;99.90;;;;;;5072012;28;20237;-49
2023/04/02 02:35:29;;;;;;;1999.90;534.37;;;7.40;99.90;;;;;;5088630;28;20777;-50
2023/04/02 02:38:08;;;;;;;1999.90;585.57;;;7.30;99.90;;;;;;5090954;28;20228;-51
2023/04/02 02:40:43;;;;;;;1999.90;414.97;;;7.20;99.90;;;;;;5077985;28;20299;-50
2023/04/02 02:43:15;;;;;;;1999.90;670.10;;;7.30;99.90;;;;;;5091178;28;20299;-49
2023/04/02 02:45:47;;;;;;;1999.90;503.77;;;7.30;99.90;;;;;;5090944;28;20204;-51
2023/04/02 02:48:19;;;;;;;1999.90;756.03;;;7.10;99.90;;;;;;5090523;28;20724;-51
2023/04/02 02:50:49;;;;;;;1999.90;999.27;;;7.20;99.90;;;;;;5091285;28;20200;-51
2023/04/02 02:53:20;;;;;;;1999.90;429.80;;;7.30;99.90;;;;;;5083478;28;20215;-50
2023/04/02 02:55:53;;;;;;;1999.90;856.93;;;7.20;99.90;;;;;;5089532;28;20231;-51
2023/04/02 02:58:26;;;;;;;1999.90;994.03;;;7.30;99.90;;;;;;5091223;28;20283;-50
2023/04/02 03:00:55;;;;;;;1529.67;206.43;;;7.20;99.90;;;;;;5073773;28;20204;-50
2023/04/02 03:03:27;;;;;;;1853.43;233.53;;;7.10;99.90;;;;;;5081856;28;20257;-51
2023/04/02 03:05:58;;;;;;;1999.90;816.23;;;7.10;99.90;;;;;;5090787;28;20209;-51
2023/04/02 03:08:32;;;;;;;1999.90;931.50;;;7.00;99.90;;;;;;5083617;28;20200;-50
2023/04/02 03:11:05;;;;;;;1999.90;608.73;;;7.00;99.90;;;;;;5088180;28;20230;-51
2023/04/02 03:13:34;;;;;;;1999.90;853.87;;;6.90;99.90;;;;;;5087333;28;20312;-51
2023/04/02 03:16:10;;;;;;;1999.90;785.63;;;6.80;99.90;;;;;;5094001;28;20661;-50
2023/04/02 03:18:45;;;;;;;1999.90;687.33;;;6.60;99.90;;;;;;5093946;28;20204;-50
2023/04/02 03:21:27;;;;;;;1999.90;686.77;;;6.60;99.90;;;;;;5079463;28;20310;-51
2023/04/02 03:23:59;;;;;;;1999.90;717.80;;;6.60;99.90;;;;;;5069632;28;20239;-50
2023/04/02 03:26:32;;;;;;;1999.90;637.37;;;6.50;99.90;;;;;;5092239;28;20231;-50
2023/04/02 03:29:06;;;;;;;1999.90;586.27;;;6.50;99.90;;;;;;5090141;28;20204;-50
2023/04/02 03:31:39;;;;;;;1928.77;202.43;;;6.50;99.90;;;;;;5090048;28;20319;-51
2023/04/02 03:34:13;;;;;;;1999.90;703.03;;;6.40;99.90;;;;;;5090460;28;20216;-50
2023/04/02 03:36:49;;;;;;;1999.90;481.30;;;6.30;99.90;;;;;;5090495;28;20223;-50
2023/04/02 03:39:23;;;;;;;1999.90;600.20;;;6.40;99.90;;;;;;5079259;28;20636;-50
2023/04/02 03:41:55;;;;;;;1214.20;217.70;;;6.20;99.90;;;;;;5090331;28;20239;-50
2023/04/02 03:44:28;;;;;;;1999.90;643.80;;;6.30;99.90;;;;;;5090639;28;20205;-57
2023/04/02 03:47:03;;;;;;;1999.90;462.90;;;6.20;99.90;;;;;;5076406;28;20930;-50
2023/04/02 03:49:36;;;;;;;1999.90;852.97;;;6.20;99.90;;;;;;5088688;28;20291;-51
2023/04/02 03:52:10;;;;;;;1999.90;561.87;;;6.20;99.90;;;;;;5085755;28;20224;-50
2023/04/02 03:54:38;;;;;;;1387.23;175.70;;;6.10;99.90;;;;;;5090021;28;20281;-50
2023/04/02 03:57:27;;;;;;;1999.90;601.83;;;6.10;99.90;;;;;;5089898;28;20235;-51
2023/04/02 04:00:01;;;;;;;1230.47;180.50;;;6.00;99.90;;;;;;5089909;28;20211;-51
2023/04/02 04:02:41;;;;;;;523.67;62.23;;;6.00;99.90;;;;;;5089723;28;20298;-51
2023/04/02 04:05:21;;;;;;;1999.90;373.83;;;6.00;99.90;;;;;;5090034;28;20210;-51
2023/04/02 04:07:53;;;;;;;1999.90;423.67;;;6.00;99.90;;;;;;5089615;28;20711;-49
2023/04/02 04:10:25;;;;;;;1999.90;225.00;;;5.90;99.90;;;;;;5088952;28;20243;-51
2023/04/02 04:12:57;;;;;;;1999.90;959.10;;;5.90;99.90;;;;;;5089132;28;20315;-51
2023/04/02 04:15:31;;;;;;;1837.07;256.33;;;5.90;99.90;;;;;;5081482;28;20292;-50
2023/04/02 04:18:10;;;;;;;1999.90;686.50;;;5.90;99.90;;;;;;5088569;28;20258;-50
2023/04/02 04:20:47;;;;;;;1999.90;585.67;;;5.90;99.90;;;;;;5076065;28;20308;-50
2023/04/02 04:23:24;;;;;;;1999.90;535.03;;;5.90;99.90;;;;;;5085817;28;20238;-50
2023/04/02 04:25:58;;;;;;;1999.90;475.67;;;5.80;99.90;;;;;;5089749;28;20215;-50
2023/04/02 04:28:32;;;;;;;1999.90;563.33;;;5.70;99.90;;;;;;5079899;28;20298;-50
2023/04/02 04:31:05;;;;;;;1999.90;546.37;;;5.80;99.90;;;;;;5089321;28;20778;-50
2023/04/02 04:33:41;;;;;;;1999.90;606.10;;;5.70;99.90;;;;;;5089525;28;20269;-50
2023/04/02 04:36:27;;;;;;;1999.90;845.43;;;5.70;99.90;;;;;;5071227;28;20217;-51
2023/04/02 04:38:59;;;;;;;1999.90;699.07;;;5.60;99.90;;;;;;5089203;28;20215;-51
2023/04/02 04:41:31;;;;;;;1999.90;429.43;;;5.60;99.90;;;;;;5084396;28;20289;-51
2023/04/02 04:44:06;;;;;;;1999.90;606.87;;;5.50;99.90;;;;;;5088985;28;20226;-50
2023/04/02 04:46:40;;;;;;;1999.90;526.10;;;5.70;99.90;;;;;;5089172;28;20671;-50
2023/04/02 04:49:14;;;;;;;1999.90;292.67;;;5.60;99.90;;;;;;5089032;28;20299;-51
2023/04/02 04:51:46;;;;;;;1492.13;242.90;;;5.60;99.90;;;;;;5088776;28;20791;-51
2023/04/02 04:54:15;;;;;;;1462.50;187.20;;;5.60;99.90;;;;;;5089037;28;20200;-50
2023/04/02 04:56:47;;;;;;;1999.90;322.47;;;5.60;99.90;;;;;;5087748;28;20263;-50
2023/04/02 04:59:20;;;;;;;407.67;92.17;;;5.60;99.90;;;;;;5088685;28;20245;-50
2023/04/02 05:01:55;;;;;;;1999.90;534.03;;;5.60;99.90;;;;;;5076540;28;20212;-50
2023/04/02 05:04:30;;;;;;;1999.90;330.07;;;5.70;99.90;;;;;;5088052;28;20658;-50
2023/04/02 05:07:05;;;;;;;37.00;21.37;;;5.60;99.90;;;;;;5088699;28;20276;-51
2023/04/02 05:09:36;;;;;;;1776.10;272.27;;;5.60;99.90;;;;;;5088741;28;20240;-50
2023/04/02 05:12:16;;;;;;;1999.90;491.53;;;5.50;99.90;;;;;;5088736;28;20224;-50
2023/04/02 05:14:51;;;;;;;1999.90;460.33;;;5.60;99.90;;;;;;5088951;28;20293;-50
2023/04/02 05:17:23;;;;;;;1999.90;584.63;;;5.60;99.90;;;;;;5088795;28;20226;-50
2023/04/02 05:19:59;;;;;;;1607.77;319.17;;;5.60;99.90;;;;;;5086131;28;20208;-50
2023/04/02 05:22:35;;;;;;;1999.90;500.93;;;5.60;99.90;;;;;;5078680;28;20234;-50
2023/04/02 05:25:20;;;;;;;1999.90;358.83;;;5.70;99.90;;;;;;5088508;28;20211;-50
2023/04/02 05:27:54;;;;;;;1248.13;293.10;;;5.60;99.90;;;;;;5088722;28;20235;-50
2023/04/02 05:30:51;;;;;;;1999.90;641.50;;;5.60;99.90;;;;;;5088407;28;20297;-50
2023/04/02 05:33:26;;;;;;;1999.90;492.13;;;5.70;99.90;;;;;;5088597;28;20235;-51
2023/04/02 05:36:00;;;;;;;1999.90;666.80;;;5.70;99.90;;;;;;5088774;28;20210;-51
2023/04/02 05:38:31;;;;;;;1999.90;750.53;;;5.60;99.90;;;;;;5088593;28;20215;-51
2023/04/02 05:41:02;;;;;;;1961.83;344.57;;;5.70;99.90;;;;;;5088850;28;20315;-51
2023/04/02 05:43:33;;;;;;;1999.90;501.87;;;5.60;99.90;;;;;;5077728;28;20285;-50
2023/04/02 05:46:07;;;;;;;1999.90;301.87;;;5.60;99.90;;;;;;5088162;28;20240;-50
2023/04/02 05:48:39;;;;;;;1937.37;283.90;;;5.50;99.90;;;;;;5088244;28;20210;-50
2023/04/02 05:51:16;;;;;;;1999.90;368.90;;;5.50;99.90;;;;;;5082645;28;20294;-50
2023/04/02 05:53:49;;;;;;;1900.83;288.77;;;5.60;99.90;;;;;;5085517;28;20848;-50
2023/04/02 05:56:20;;;;;;;1864.87;281.03;;;5.60;99.90;;;;;;5092180;28;20230;-50
2023/04/02 05:58:51;;;;;;;1999.90;316.03;;;5.60;99.90;;;;;;5091764;28;20293;-50
2023/04/02 06:01:32;;;;;;;1609.33;236.53;;;5.50;99.90;;;;;;5067968;28;20888;-50
2023/04/02 06:04:07;;;;;;;1566.27;234.20;;;5.60;99.90;;;;;;5084648;28;20205;-50
2023/04/02 06:06:58;;;;;;;1999.90;888.70;;;5.60;99.90;;;;;;5092064;28;20692;-51
2023/04/02 06:09:34;;;;;;;179.07;43.17;;;5.60;99.90;;;;;;5091713;28;20717;-51
2023/04/02 06:12:13;;;;;;;1999.90;394.00;;;5.60;99.90;;;;;;5085416;28;20625;-50
2023/04/02 06:14:41;;;;;;;1999.90;530.10;;;5.60;99.90;;;;;;5063432;28;20780;-50
2023/04/02 06:17:14;;;;;;;1999.90;920.13;;;5.50;99.90;;;;;;5091716;28;20230;-50
2023/04/02 06:19:42;;;;;;;1667.50;204.73;;;5.50;99.90;;;;;;5090430;28;20243;-50
2023/04/02 06:22:21;;;;;;;189.17;64.73;;;5.60;99.90;;;;;;5079079;28;21119;-50
2023/04/02 06:24:55;;;;;;;1478.83;165.93;;;5.60;99.90;;;;;;5084557;28;20334;-50
2023/04/02 06:27:26;;;;;;;1999.90;599.37;;;5.60;99.90;;;;;;5091591;28;20253;-50
2023/04/02 06:29:59;;;;;;;1780.27;418.90;;;5.60;99.90;;;;;;5076964;28;20305;-50
2023/04/02 06:32:27;;;;;;;1999.90;705.77;;;5.70;99.90;;;;;;5091660;28;20199;-51
2023/04/02 06:34:55;;;;;;;1999.90;632.23;;;5.70;99.90;;;;;;5091701;28;20611;-49
2023/04/02 06:37:30;;;;;;;862.47;138.13;;;5.60;99.90;;;;;;5091274;28;20309;-50
2023/04/02 06:39:59;;;;;;;1999.90;685.90;;;5.60;99.90;;;;;;5091634;28;20217;-50
2023/04/02 06:42:30;;;;;;;104.70;53.07;;;5.70;99.90;;;;;;5084410;28;20235;-51
2023/04/02 06:44:59;;;;;;;1999.90;587.87;;;5.70;99.90;;;;;;5079389;28;20290;-50
2023/04/02 06:47:35;;;;;;;1999.90;660.50;;;5.60;99.90;;;;;;5070709;28;20276;-50
2023/04/02 06:50:10;;;;;;;1999.90;428.50;;;5.50;99.90;;;;;;5071642;28;20266;-50
2023/04/02 06:52:45;;;;;;;1999.90;731.43;;;5.40;99.90;;;;;;5071030;28;20249;-51
2023/04/02 06:55:30;;;;;;;1999.90;303.70;;;5.40;99.90;;;;;;5084524;28;20281;-50
2023/04/02 06:57:58;;;;;;;1999.90;577.37;;;5.40;99.90;;;;;;5059199;28;20260;-50
2023/04/02 07:00:32;;;;;;;1999.90;426.90;;;5.40;99.90;;;;;;5070343;28;20246;-50
2023/04/02 07:03:05;;;;;;;1999.90;557.13;;;5.50;99.90;;;;;;5070396;28;20206;-50
2023/04/02 07:05:33;;;;;;;1999.90;813.27;;;5.40;99.90;;;;;;5069903;28;20197;-51
2023/04/02 07:08:03;;;;;;;1810.60;265.13;;;5.50;99.90;;;;;;5069635;28;20229;-51
2023/04/02 07:10:31;;;;;;;1999.90;667.97;;;5.40;99.90;;;;;;5070680;28;20207;-51
2023/04/02 07:13:01;;;;;;;1547.23;241.83;;;5.30;99.90;;;;;;5070947;28;20254;-50
2023/04/02 07:15:29;;;;;;;595.73;129.37;;;5.30;99.90;;;;;;5077804;28;20202;-49
2023/04/02 07:17:58;;;;;;;1999.90;559.20;;;5.50;99.90;;;;;;5081303;28;20230;-50
2023/04/02 07:20:30;;;;;;;1933.50;409.67;;;5.60;99.90;;;;;;5069905;28;20202;-50
2023/04/02 07:22:58;;;;;;;1999.90;616.93;;;5.70;99.90;;;;;;5068590;28;20231;-51
2023/04/02 07:25:29;;;;;;;1999.90;410.43;;;5.60;99.90;;;;;;5060744;28;20665;-50
2023/04/02 07:27:57;;;;;;;1999.90;493.23;;;5.60;99.90;;;;;;5068322;28;20226;-51
2023/04/02 07:30:25;;;;;;;1999.90;356.03;;;5.60;99.90;;;;;;5070412;28;20204;-52
2023/04/02 07:32:53;;;;;;;1999.90;438.87;;;5.60;99.90;;;;;;5069457;28;20215;-51
2023/04/02 07:35:21;;;;;;;1999.90;484.23;;;5.60;99.90;;;;;;5068567;28;20262;-51
2023/04/02 07:37:51;;;;;;;1999.90;653.53;;;5.60;99.90;;;;;;5067227;28;20238;-52
2023/04/02 07:40:23;;;;;;;1999.90;543.60;;;5.70;99.90;;;;;;5066866;28;20232;-51
2023/04/02 07:42:52;;;;;;;1999.90;536.27;;;5.60;99.90;;;;;;5069905;28;20322;-51
2023/04/02 07:45:20;;;;;;;1999.90;325.50;;;5.50;99.90;;;;;;5069154;28;20391;-50
2023/04/02 07:47:48;;;;;;;1280.17;200.43;;;5.50;99.90;;;;;;5069233;28;20938;-50
2023/04/02 07:50:16;;;;;;;1999.90;884.33;;;5.50;99.90;;;;;;5069644;28;20811;-51
2023/04/02 07:52:45;;;;;;;1999.90;708.20;;;5.50;99.90;;;;;;5068356;28;20211;-51
2023/04/02 07:55:15;;;;;;;1999.90;377.50;;;5.50;99.90;;;;;;5066056;28;20320;-51
2023/04/02 07:57:49;;;;;;;1230.50;222.23;;;5.60;99.90;;;;;;5060163;28;20258;-50
2023/04/02 08:00:21;;;;;;;1999.90;520.47;;;5.70;99.90;;;;;;5063323;28;20640;-51
2023/04/02 08:02:50;;;;;;;1999.90;578.90;;;5.60;99.90;;;;;;5061425;28;20210;-50
2023/04/02 08:05:19;;;;;;;1999.90;553.47;;;5.50;99.90;;;;;;5059654;28;20611;-51
2023/04/02 08:07:53;;;;;;;1999.90;897.83;;;5.70;99.90;;;;;;5054364;28;20279;-50
2023/04/02 08:10:22;;;;;;;1994.67;347.97;;;5.90;99.90;;;;;;5069130;28;20248;-51
2023/04/02 08:12:50;;;;;;;1999.90;348.60;;;5.70;99.90;;;;;;5070621;28;20240;-51
2023/04/02 08:15:19;;;;;;;1113.13;200.67;;;5.60;99.90;;;;;;5068655;28;20316;-51
2023/04/02 08:17:47;;;;;;;1999.90;876.00;;;5.50;99.90;;;;;;5069050;28;20317;-50
2023/04/02 08:20:17;;;;;;;1999.90;389.30;;;5.70;99.90;;;;;;5066353;28;20864;-52
2023/04/02 08:22:45;;;;;;;1999.90;721.87;;;5.70;99.90;;;;;;5066212;28;20664;-51
2023/04/02 08:25:14;;;;;;;1999.90;652.97;;;5.70;99.90;;;;;;5075635;28;20247;-50
2023/04/02 08:27:42;;;;;;;1999.90;378.83;;;5.70;99.90;;;;;;5079240;28;20234;-51
2023/04/02 08:30:13;;;;;;;1999.90;575.70;;;5.60;99.90;;;;;;5081230;28;20211;-51
2023/04/02 08:32:42;;;;;;;1999.90;966.83;;;5.70;99.90;;;;;;5087551;28;20238;-51
2023/04/02 08:35:13;;;;;;;1473.33;287.40;;;5.50;99.90;;;;;;5087147;28;20706;-51
2023/04/02 08:37:42;;;;;;;1999.90;700.87;;;5.60;99.90;;;;;;5078721;28;20657;-50
2023/04/02 08:40:21;;;;;;;1999.90;324.43;;;5.80;99.90;;;;;;5083168;28;20221;-50
2023/04/02 08:43:05;;;;;;;456.53;80.67;;;5.90;99.90;;;;;;5078203;28;20287;-51
2023/04/02 08:45:46;;;;;;;1900.23;357.43;;;5.80;99.90;;;;;;5087341;28;20666;-50
2023/04/02 08:48:15;;;;;;;1999.90;721.57;;;5.70;99.90;;;;;;5089113;28;20715;-50
2023/04/02 08:50:45;;;;;;;1999.90;948.97;;;5.70;99.90;;;;;;5089186;28;20405;-50
2023/04/02 08:53:17;;;;;;;1999.90;530.00;;;5.90;99.90;;;;;;5089066;28;20298;-50
2023/04/02 08:55:54;;;;;;;567.90;137.13;;;5.70;99.90;;;;;;5089092;28;20227;-50
2023/04/02 08:58:34;;;;;;;1946.33;362.83;;;5.80;99.90;;;;;;5088654;28;20227;-50
2023/04/02 09:01:05;;;;;;;1999.90;316.70;;;5.80;99.90;;;;;;5088914;28;20281;-51
2023/04/02 09:03:40;;;;;;;1999.90;573.70;;;5.90;99.90;;;;;;5079919;28;20200;-50
2023/04/02 09:06:11;;;;;;;1999.90;433.77;;;5.90;99.90;;;;;;5088679;28;20217;-50
2023/04/02 09:08:45;;;;;;;1999.90;816.37;;;6.00;99.90;;;;;;5084785;28;20618;-50
2023/04/02 09:11:22;;;;;;;1920.47;299.47;;;6.00;99.90;;;;;;5088987;28;20242;-50
2023/04/02 09:13:55;;;;;;;1999.90;668.37;;;5.90;99.90;;;;;;5088879;28;20261;-51
2023/04/02 09:16:34;;;;;;;1999.90;593.23;;;5.70;99.90;;;;;;5075053;28;20323;-51
2023/04/02 09:19:18;;;;;;;1999.90;568.53;;;5.90;99.90;;;;;;5089084;28;20217;-50
2023/04/02 09:21:56;;;;;;;1999.90;541.77;;;5.90;99.90;;;;;;5071474;28;20244;-51
2023/04/02 09:24:24;;;;;;;1999.90;852.17;;;5.90;99.90;;;;;;5088746;28;20691;-51
2023/04/02 09:26:52;;;;;;;1999.90;739.20;;;6.10;99.90;;;;;;5088877;28;20227;-50
2023/04/02 09:29:42;;;;;;;1999.90;792.83;;;5.90;99.90;;;;;;5087920;28;20221;-50
2023/04/02 09:32:40;;;;;;;1999.90;370.10;;;6.00;99.90;;;;;;5075212;28;20294;-50
2023/04/02 09:35:14;;;;;;;1999.90;462.47;;;5.90;99.90;;;;;;5092868;28;20246;-50
2023/04/02 09:38:15;;;;;;;1999.90;525.20;;;5.90;99.90;;;;;;5086203;28;20658;-51
2023/04/02 09:40:47;;;;;;;744.03;173.30;;;5.70;99.90;;;;;;5086861;28;20247;-48
2023/04/02 09:43:17;;;;;;;126.53;66.97;;;5.80;99.90;;;;;;5085652;28;20215;-50
2023/04/02 09:45:56;;;;;;;1999.90;500.17;;;5.80;99.90;;;;;;5084811;28;20283;-49
2023/04/02 09:48:29;;;;;;;1133.03;178.03;;;6.00;99.90;;;;;;5091959;28;20851;-50
2023/04/02 09:51:23;;;;;;;1999.90;527.00;;;6.00;99.90;;;;;;5075212;28;20669;-50
2023/04/02 09:54:09;;;;;;;1999.90;542.83;;;5.80;99.90;;;;;;5058346;28;20238;-50
2023/04/02 09:56:37;;;;;;;1999.90;457.13;;;5.80;99.90;;;;;;5092171;28;20234;-50
2023/04/02 09:59:14;;;;;;;1999.90;706.80;;;5.70;99.90;;;;;;5092046;28;20231;-50
2023/04/02 10:01:43;;;;;;;1220.73;226.90;;;5.80;99.90;;;;;;5091637;28;20206;-50
2023/04/02 10:04:37;;;;;;;787.00;191.93;;;5.70;99.90;;;;;;5091742;28;20309;-50
2023/04/02 10:07:07;;;;;;;1999.90;728.73;;;5.80;99.90;;;;;;5091603;28;20234;-50
2023/04/02 10:09:37;;;;;;;1999.90;416.20;;;5.70;99.90;;;;;;5077503;28;20296;-51
2023/04/02 10:12:11;;;;;;;1999.90;480.50;;;5.70;99.90;;;;;;5091347;28;20313;-50
2023/04/02 10:14:43;;;;;;;1999.90;840.53;;;5.70;99.90;;;;;;5091374;28;20682;-50
2023/04/02 10:17:15;;;;;;;1999.90;804.77;;;5.70;99.90;;;;;;5091836;28;20265;-50
2023/04/02 10:19:47;;;;;;;1999.90;657.87;;;5.80;99.90;;;;;;5079951;28;20913;-50
2023/04/02 10:22:19;;;;;;;1999.90;548.20;;;5.70;99.90;;;;;;5075668;28;20262;-49
2023/04/02 10:24:47;;;;;;;1917.53;331.93;;;5.80;99.90;;;;;;5086422;28;20243;-51
2023/04/02 10:27:25;;;;;;;1137.27;232.40;;;5.90;99.90;;;;;;5087660;28;20330;-50
2023/04/02 10:30:09;;;;;;;1555.30;288.33;;;5.80;99.90;;;;;;5090957;28;20239;-50
2023/04/02 10:32:43;;;;;;;1999.90;885.97;;;5.80;99.90;;;;;;5090853;28;20273;-49
2023/04/02 10:35:20;;;;;;;1999.90;488.83;;;6.00;99.90;;;;;;5064724;28;20231;-50
2023/04/02 10:38:06;;;;;;;1999.90;999.90;;;5.70;99.90;;;;;;5071316;28;20308;-50
2023/04/02 10:40:36;;;;;;;1999.90;683.27;;;5.80;99.90;;;;;;5067355;28;20200;-50
2023/04/02 10:43:50;;;;;;;430.73;76.17;;;5.80;99.90;;;;;;5070632;28;20232;-50
2023/04/02 10:46:23;;;;;;;1868.40;334.03;;;5.80;99.90;;;;;;5061016;28;20785;-50
2023/04/02 10:49:02;;;;;;;169.87;52.93;;;5.80;99.90;;;;;;5070627;28;20205;-50
2023/04/02 10:51:38;;;;;;;1999.90;519.50;;;5.70;99.90;;;;;;5067194;28;20212;-50
2023/04/02 10:54:23;;;;;;;1999.90;826.90;;;5.60;99.90;;;;;;5070344;28;20237;-50
2023/04/02 10:56:53;;;;;;;1999.90;924.73;;;5.80;99.90;;;;;;5068102;28;20718;-50
2023/04/02 10:59:26;;;;;;;1999.90;367.30;;;5.90;99.90;;;;;;5070410;28;20208;-50
2023/04/02 11:01:57;;;;;;;1999.90;759.80;;;5.70;99.90;;;;;;5068604;28;20648;-49
2023/04/02 11:04:32;;;;;;;1999.90;782.17;;;5.80;99.90;;;;;;5070645;28;20254;-51
2023/04/02 11:07:04;;;;;;;1568.47;286.30;;;5.80;99.90;;;;;;5070255;28;20739;-51
2023/04/02 11:09:45;;;;;;;1944.53;371.50;;;5.70;99.90;;;;;;5070415;28;20347;-50
2023/04/02 11:12:20;;;;;;;1999.90;999.90;;;5.70;99.90;;;;;;5070218;28;20241;-50
2023/04/02 11:14:50;;;;;;;1999.90;595.50;;;5.80;99.90;;;;;;5070454;28;20208;-50
2023/04/02 11:17:19;;;;;;;1999.90;498.17;;;5.80;99.90;;;;;;5070343;28;20232;-50
2023/04/02 11:19:47;;;;;;;1999.90;674.90;;;5.80;99.90;;;;;;5065902;28;20211;-50
2023/04/02 11:22:17;;;;;;;1999.90;484.60;;;5.70;99.90;;;;;;5073488;28;20294;-49
2023/04/02 11:24:48;;;;;;;1999.90;905.20;;;5.60;99.90;;;;;;5075319;28;20300;-51
2023/04/02 11:27:21;;;;;;;1999.90;789.47;;;5.70;99.90;;;;;;5090270;28;20252;-51
2023/04/02 11:29:52;;;;;;;1999.90;904.00;;;5.60;99.90;;;;;;5090420;28;20213;-50
2023/04/02 11:32:33;;;;;;;1999.90;498.40;;;5.80;99.90;;;;;;5090247;28;20698;-51
2023/04/02 11:35:40;;;;;;;1138.07;243.00;;;5.80;99.90;;;;;;5090402;28;20259;-50
2023/04/02 11:38:45;;;;;;;1999.90;456.30;;;5.90;99.90;;;;;;5072182;28;20764;-51
2023/04/02 11:41:34;;;;;;;1619.17;337.93;;;6.00;99.90;;;;;;5071103;28;20226;-50
2023/04/02 11:44:03;;;;;;;1999.90;993.77;;;6.20;99.90;;;;;;5070878;28;20659;-50
2023/04/02 11:46:44;;;;;;;1999.90;487.07;;;6.40;99.90;;;;;;5071879;28;20311;-50
2023/04/02 11:49:35;;;;;;;1999.90;683.90;;;6.10;99.90;;;;;;5061614;28;20238;-52
2023/04/02 11:52:05;;;;;;;1999.90;479.07;;;6.10;99.90;;;;;;5063387;28;20209;-51
2023/04/02 11:54:40;;;;;;;366.77;116.00;;;6.00;99.90;;;;;;5069221;28;20291;-51
2023/04/02 11:57:21;;;;;;;1999.90;945.97;;;5.90;99.90;;;;;;5059662;28;20227;-50
2023/04/02 12:00:05;;;;;;;1999.90;753.33;;;5.90;99.90;;;;;;5065486;28;20209;-51
2023/04/02 12:02:41;;;;;;;1999.90;969.37;;;5.90;99.90;;;;;;5058135;28;20267;-50
2023/04/02 12:05:21;;;;;;;1999.90;999.47;;;6.00;99.90;;;;;;5057432;28;20205;-50
2023/04/02 12:08:06;;;;;;;1999.90;472.00;;;6.00;99.90;;;;;;5063666;28;20831;-51
2023/04/02 12:10:52;;;;;;;1999.90;467.90;;;5.90;99.90;;;;;;5067224;28;20295;-51
2023/04/02 12:13:50;;;;;;;1999.90;603.03;;;5.90;99.90;;;;;;5068200;28;20660;-50
2023/04/02 12:16:20;;;;;;;1999.90;568.07;;;5.90;99.90;;;;;;5064123;28;20235;-50
2023/04/02 12:18:52;;;;;;;1999.90;842.53;;;5.90;99.90;;;;;;5069198;28;20230;-51
2023/04/02 12:21:23;;;;;;;1999.90;594.47;;;6.00;99.90;;;;;;5054182;28;20751;-50
2023/04/02 12:23:54;;;;;;;1999.90;419.30;;;6.00;99.90;;;;;;5058107;28;20787;-49
2023/04/02 12:26:30;;;;;;;1999.90;992.47;;;5.90;99.90;;;;;;5074166;28;20776;-51
2023/04/02 12:29:23;;;;;;;760.83;184.60;;;5.80;99.90;;;;;;5068663;28;20712;-51
2023/04/02 12:31:52;;;;;;;528.77;140.13;;;5.90;99.90;;;;;;5068356;28;20212;-51
2023/04/02 12:34:22;;;;;;;89.27;73.53;;;5.90;99.90;;;;;;5068665;28;20208;-50
2023/04/02 12:36:56;;;;;;;1999.90;619.17;;;5.90;99.90;;;;;;5067973;28;20767;-51
2023/04/02 12:39:24;;;;;;;1999.90;715.67;;;6.00;99.90;;;;;;5068903;28;20214;-51
2023/04/02 12:41:55;;;;;;;1999.90;774.27;;;6.10;99.90;;;;;;5069746;28;20222;-51
2023/04/02 12:44:27;;;;;;;1563.13;316.27;;;6.00;99.90;;;;;;5080424;28;20204;-51